Time;durP1;ratioP1;P1;durP2;ratioP2;P2;SDS_P1;SDS_P2;PMS_P1;PMS_P2;Temp;Humidity;BMP_temperature;BMP_pressure;BME280_temperature;BME280_humidity;BME280_pressure;Samples;Min_cycle;Max_cycle;Signal;HPM_P1;HPM_P2
2022/01/09 00:01:06;;;;;;;10.38;6.30;;;2.30;99.90;;;;;;5047714;28;20067;-56
2022/01/09 00:03:53;;;;;;;8.73;5.80;;;2.40;99.90;;;;;;5052389;28;20467;-55
2022/01/09 00:06:37;;;;;;;9.95;5.80;;;2.50;99.90;;;;;;5052950;28;20526;-50
2022/01/09 00:09:21;;;;;;;8.13;5.75;;;2.50;99.90;;;;;;5053365;28;20060;-54
2022/01/09 00:12:06;;;;;;;10.75;5.45;;;2.50;99.90;;;;;;5053352;28;20059;-54
2022/01/09 00:14:51;;;;;;;11.05;5.32;;;2.50;99.90;;;;;;5052930;28;20649;-55
2022/01/09 00:17:35;;;;;;;;;;;2.40;99.90;;;;;;5053345;28;20048;-55
2022/01/09 00:20:20;;;;;;;8.43;5.35;;;2.40;99.90;;;;;;5033057;28;19931;-57
2022/01/09 00:23:04;;;;;;;7.68;5.40;;;2.40;99.90;;;;;;5035886;28;20048;-54
2022/01/09 00:25:49;;;;;;;8.00;5.75;;;2.40;99.90;;;;;;5050940;28;20048;-56
2022/01/09 00:28:34;;;;;;;7.63;5.50;;;2.40;99.90;;;;;;5052237;28;20035;-57
2022/01/09 00:31:18;;;;;;;8.32;5.30;;;2.40;99.90;;;;;;5052409;28;20067;-54
2022/01/09 00:34:02;;;;;;;9.20;5.77;;;2.30;99.90;;;;;;5052493;28;20130;-53
2022/01/09 00:36:47;;;;;;;10.32;5.70;;;2.40;99.90;;;;;;5068592;28;20035;-57
2022/01/09 00:39:31;;;;;;;10.00;5.50;;;2.40;99.90;;;;;;5053877;28;20040;-58
2022/01/09 00:42:15;;;;;;;7.78;5.93;;;2.30;99.90;;;;;;5052747;28;20043;-52
2022/01/09 00:44:59;;;;;;;7.28;5.35;;;2.30;99.90;;;;;;5052899;28;20040;-53
2022/01/09 00:47:44;;;;;;;8.25;5.53;;;2.20;99.90;;;;;;5053288;28;20443;-52
2022/01/09 00:50:28;;;;;;;10.70;6.55;;;2.30;99.90;;;;;;5032596;28;20080;-53
2022/01/09 00:53:12;;;;;;;9.52;5.57;;;2.20;99.90;;;;;;5053053;28;20079;-56
2022/01/09 00:55:56;;;;;;;7.78;5.95;;;2.30;99.90;;;;;;5052774;28;20036;-51
2022/01/09 00:58:42;;;;;;;8.15;5.88;;;2.20;99.90;;;;;;5059660;28;20130;-51
2022/01/09 01:01:26;;;;;;;9.77;6.03;;;2.30;99.90;;;;;;5052771;28;20094;-55
2022/01/09 01:04:10;;;;;;;11.45;6.15;;;2.30;99.90;;;;;;5052641;28;20072;-53
2022/01/09 01:06:55;;;;;;;12.70;6.05;;;2.30;99.90;;;;;;5052925;28;20159;-51
2022/01/09 01:09:38;;;;;;;9.52;5.57;;;2.20;99.90;;;;;;5052961;28;20044;-53
2022/01/09 01:12:25;;;;;;;11.35;5.45;;;2.20;99.90;;;;;;5052923;28;20064;-53
2022/01/09 01:15:10;;;;;;;8.82;5.82;;;2.20;99.90;;;;;;5031847;28;20056;-54
2022/01/09 01:17:54;;;;;;;8.80;5.65;;;2.20;99.90;;;;;;5031977;28;20111;-54
2022/01/09 01:20:39;;;;;;;10.20;5.88;;;2.30;99.90;;;;;;5050468;28;20152;-56
2022/01/09 01:23:23;;;;;;;10.05;6.55;;;2.20;99.90;;;;;;5050152;28;20075;-54
2022/01/09 01:26:07;;;;;;;9.05;5.55;;;2.30;99.90;;;;;;5051236;28;20106;-55
2022/01/09 01:28:51;;;;;;;7.57;5.53;;;2.20;99.90;;;;;;5050895;28;20463;-55
2022/01/09 01:31:35;;;;;;;8.93;6.00;;;2.20;99.90;;;;;;5054864;28;20048;-55
2022/01/09 01:34:19;;;;;;;7.72;5.55;;;2.20;99.90;;;;;;5055350;28;20118;-57
2022/01/09 01:37:03;;;;;;;8.00;5.93;;;2.20;99.90;;;;;;5056442;28;20049;-53
2022/01/09 01:39:48;;;;;;;8.60;6.10;;;2.20;99.90;;;;;;5055864;28;20428;-51
2022/01/09 01:42:32;;;;;;;8.48;5.65;;;2.30;99.90;;;;;;5055597;28;20078;-55
2022/01/09 01:45:16;;;;;;;13.05;6.57;;;2.20;99.90;;;;;;5055739;28;20448;-58
2022/01/09 01:48:06;;;;;;;8.40;5.53;;;2.30;99.90;;;;;;5055615;28;20059;-57
2022/01/09 01:50:50;;;;;;;12.77;6.47;;;2.30;99.90;;;;;;5054629;28;20078;-53
2022/01/09 01:53:34;;;;;;;11.15;6.55;;;2.30;99.90;;;;;;5035630;28;20473;-49
2022/01/09 01:56:20;;;;;;;7.53;6.22;;;2.30;99.90;;;;;;5035763;28;20040;-53
2022/01/09 01:59:04;;;;;;;8.82;6.05;;;2.30;99.90;;;;;;5049621;28;20035;-59
2022/01/09 02:01:49;;;;;;;8.43;5.95;;;2.30;99.90;;;;;;5048126;28;20047;-54
2022/01/09 02:04:33;;;;;;;11.70;6.18;;;2.30;99.90;;;;;;5055029;28;20052;-54
2022/01/09 02:07:17;;;;;;;9.10;6.13;;;2.40;99.90;;;;;;5055470;28;20519;-54
2022/01/09 02:10:03;;;;;;;10.02;6.25;;;2.30;99.90;;;;;;5055312;28;20121;-52
2022/01/09 02:12:49;;;;;;;8.30;6.15;;;2.30;99.90;;;;;;5055256;28;20059;-56
2022/01/09 02:15:37;;;;;;;6.20;5.10;;;2.30;99.90;;;;;;5056376;28;20067;-55
2022/01/09 02:18:21;;;;;;;8.48;6.00;;;2.30;99.90;;;;;;5054671;28;20090;-52
2022/01/09 02:21:07;;;;;;;8.20;5.82;;;2.30;99.90;;;;;;5055646;28;20049;-51
2022/01/09 02:23:51;;;;;;;9.80;5.93;;;2.30;99.90;;;;;;5055761;28;20710;-56
2022/01/09 02:26:35;;;;;;;6.33;5.50;;;2.30;99.90;;;;;;5055660;28;20098;-53
2022/01/09 02:29:19;;;;;;;10.82;5.90;;;2.30;99.90;;;;;;5054321;28;20032;-54
2022/01/09 02:32:03;;;;;;;9.95;6.35;;;2.30;99.90;;;;;;5055967;28;20051;-50
2022/01/09 02:34:50;;;;;;;8.00;5.55;;;2.30;99.90;;;;;;5053658;28;20021;-55
2022/01/09 02:37:34;;;;;;;7.22;5.57;;;2.30;99.90;;;;;;5050754;28;20404;-55
2022/01/09 02:40:18;;;;;;;10.30;5.07;;;2.40;99.90;;;;;;5055565;28;20457;-57
2022/01/09 02:43:03;;;;;;;8.35;6.22;;;2.40;99.90;;;;;;5055626;28;20039;-55
2022/01/09 02:45:54;;;;;;;7.53;5.53;;;2.40;99.90;;;;;;5054554;28;20048;-56
2022/01/09 02:48:39;;;;;;;10.35;5.82;;;2.40;99.90;;;;;;5053441;28;20040;-50
2022/01/09 02:51:24;;;;;;;9.13;6.05;;;2.40;99.90;;;;;;5054041;28;20071;-55
2022/01/09 02:57:12;;;;;;;9.30;5.93;;;2.30;99.90;;;;;;5054522;28;20094;-55
2022/01/09 02:59:56;;;;;;;7.55;6.20;;;2.30;99.90;;;;;;5054840;28;20144;-53
2022/01/09 03:02:40;;;;;;;8.05;5.80;;;2.30;99.90;;;;;;5054911;28;20027;-55
2022/01/09 03:05:25;;;;;;;9.50;6.50;;;2.40;99.90;;;;;;5053719;28;20099;-48
2022/01/09 03:08:10;;;;;;;10.20;6.30;;;2.40;99.90;;;;;;5052627;28;20471;-56
2022/01/09 03:10:54;;;;;;;8.95;6.25;;;2.40;99.90;;;;;;5051611;28;20455;-54
2022/01/09 03:13:39;;;;;;;8.27;6.10;;;2.40;99.90;;;;;;5047277;28;20556;-53
2022/01/09 03:16:23;;;;;;;8.52;5.93;;;2.40;99.90;;;;;;5053722;28;20039;-54
2022/01/09 03:19:07;;;;;;;8.35;5.38;;;2.40;99.90;;;;;;5053342;28;20396;-51
2022/01/09 03:21:51;;;;;;;7.60;5.72;;;2.40;99.90;;;;;;5052268;28;20047;-52
2022/01/09 03:24:35;;;;;;;7.90;6.05;;;2.40;99.90;;;;;;5051186;28;20087;-55
2022/01/09 03:27:19;;;;;;;9.70;6.25;;;2.50;99.90;;;;;;5053279;28;20044;-54
2022/01/09 03:30:07;;;;;;;10.23;5.93;;;2.40;99.90;;;;;;5050118;28;20158;-56
2022/01/09 03:32:53;;;;;;;8.95;6.50;;;2.40;99.90;;;;;;5050581;28;20036;-53
2022/01/09 03:35:38;;;;;;;8.70;6.18;;;2.40;99.90;;;;;;5050586;28;20255;-52
2022/01/09 03:38:22;;;;;;;11.10;6.40;;;2.50;99.90;;;;;;5048909;28;20064;-51
2022/01/09 03:41:06;;;;;;;10.37;6.67;;;2.50;99.90;;;;;;5054556;28;20101;-54
2022/01/09 03:43:50;;;;;;;10.73;6.63;;;2.40;99.90;;;;;;5053092;28;20549;-52
2022/01/09 03:46:34;;;;;;;10.13;6.95;;;2.40;99.90;;;;;;5054214;28;20039;-52
2022/01/09 03:49:18;;;;;;;10.13;6.88;;;2.50;99.90;;;;;;5053728;28;20032;-54
2022/01/09 03:52:03;;;;;;;9.33;6.30;;;2.50;99.90;;;;;;5053757;28;20040;-54
2022/01/09 03:54:47;;;;;;;9.35;6.32;;;2.50;99.90;;;;;;5054395;28;20044;-52
2022/01/09 03:57:32;;;;;;;8.82;6.68;;;2.50;99.90;;;;;;5054386;28;20060;-56
2022/01/09 04:00:19;;;;;;;10.15;6.20;;;2.50;99.90;;;;;;5054434;28;20043;-50
2022/01/09 04:03:04;;;;;;;8.02;6.20;;;2.60;99.90;;;;;;5034316;28;20048;-54
2022/01/09 04:05:48;;;;;;;8.48;6.72;;;2.60;99.90;;;;;;5035963;28;20049;-55
2022/01/09 04:08:34;;;;;;;11.68;6.40;;;2.60;99.90;;;;;;5054001;28;20119;-50
2022/01/09 04:11:27;;;;;;;8.93;6.32;;;2.60;99.90;;;;;;5053457;28;20417;-52
2022/01/09 04:14:11;;;;;;;7.15;6.10;;;2.60;99.90;;;;;;5053460;28;20044;-54
2022/01/09 04:16:55;;;;;;;7.78;5.35;;;2.60;99.90;;;;;;5053095;28;20552;-54
2022/01/09 04:19:40;;;;;;;7.68;5.78;;;2.60;99.90;;;;;;5052945;28;20496;-55
2022/01/09 04:22:24;;;;;;;9.02;5.78;;;2.70;99.90;;;;;;5053283;28;20075;-55
2022/01/09 04:25:08;;;;;;;7.22;5.85;;;2.70;99.90;;;;;;5053327;28;20039;-53
2022/01/09 04:27:54;;;;;;;7.70;5.28;;;2.70;99.90;;;;;;5048137;28;20520;-56
2022/01/09 04:30:38;;;;;;;7.30;5.45;;;2.80;99.90;;;;;;5052557;28;20032;-57
2022/01/09 04:33:22;;;;;;;8.13;5.82;;;2.70;99.90;;;;;;5053522;28;20087;-55
2022/01/09 04:36:07;;;;;;;6.70;5.30;;;2.80;99.90;;;;;;5053893;28;20114;-55
2022/01/09 04:38:55;;;;;;;;;;;2.70;99.90;;;;;;5053575;28;20055;-54
2022/01/09 04:41:40;;;;;;;9.27;6.00;;;2.80;99.90;;;;;;5053003;28;19915;-56
2022/01/09 04:44:24;;;;;;;7.10;6.10;;;2.80;99.90;;;;;;5053764;28;20166;-56
2022/01/09 04:47:13;;;;;;;8.25;5.80;;;2.70;99.90;;;;;;5053735;28;20063;-57
2022/01/09 04:49:59;;;;;;;9.13;5.70;;;2.70;99.90;;;;;;5052838;28;20369;-54
2022/01/09 04:52:43;;;;;;;7.82;5.22;;;2.80;99.90;;;;;;5051620;28;20036;-52
2022/01/09 04:55:29;;;;;;;6.65;5.47;;;2.80;99.90;;;;;;5052818;28;20073;-57
2022/01/09 04:58:13;;;;;;;10.05;6.03;;;2.90;99.90;;;;;;5052991;28;20036;-52
2022/01/09 05:00:57;;;;;;;9.85;6.15;;;2.90;99.90;;;;;;5053124;28;20402;-52
2022/01/09 05:03:41;;;;;;;8.70;5.30;;;2.80;99.90;;;;;;5052317;28;20495;-55
2022/01/09 05:06:26;;;;;;;7.50;5.57;;;2.90;99.90;;;;;;5056730;28;20040;-55
2022/01/09 05:09:10;;;;;;;7.25;5.63;;;2.90;99.90;;;;;;5055737;28;20032;-53
2022/01/09 05:11:56;;;;;;;22.50;11.52;;;2.90;99.90;;;;;;5056495;28;20044;-52
2022/01/09 05:14:40;;;;;;;9.02;5.30;;;3.00;99.90;;;;;;5056489;28;20507;-53
2022/01/09 05:17:25;;;;;;;6.65;5.18;;;3.00;99.90;;;;;;5056936;28;20147;-53
2022/01/09 05:20:10;;;;;;;7.20;5.50;;;3.00;99.90;;;;;;5056499;28;20039;-54
2022/01/09 05:22:55;;;;;;;;;;;3.10;99.90;;;;;;5045488;28;20044;-56
2022/01/09 05:25:39;;;;;;;8.25;5.28;;;3.10;99.90;;;;;;5038323;28;19952;-54
2022/01/09 05:28:23;;;;;;;7.57;4.90;;;3.10;99.90;;;;;;5057488;28;20056;-55
2022/01/09 05:31:07;;;;;;;6.25;4.70;;;3.20;99.90;;;;;;5056373;28;20523;-53
2022/01/09 05:33:52;;;;;;;9.00;5.07;;;3.20;99.90;;;;;;5056375;28;20048;-54
2022/01/09 05:36:36;;;;;;;6.80;5.03;;;3.20;99.90;;;;;;5056132;28;20036;-52
2022/01/09 05:39:20;;;;;;;7.82;5.32;;;3.20;99.90;;;;;;5056354;28;20043;-53
2022/01/09 05:42:07;;;;;;;6.65;5.10;;;3.20;99.90;;;;;;5055989;28;20078;-52
2022/01/09 05:44:51;;;;;;;6.57;5.47;;;3.10;99.90;;;;;;5055124;28;20075;-52
2022/01/09 05:47:35;;;;;;;6.38;4.20;;;3.20;99.90;;;;;;5055975;28;20064;-53
2022/01/09 05:50:18;;;;;;;8.77;4.90;;;3.20;99.90;;;;;;5056333;28;20087;-55
2022/01/09 05:53:03;;;;;;;7.57;5.30;;;3.20;99.90;;;;;;5056299;28;20032;-56
2022/01/09 05:55:47;;;;;;;7.80;4.90;;;3.20;99.90;;;;;;5056155;28;20139;-55
2022/01/09 05:58:33;;;;;;;7.03;4.72;;;3.20;99.90;;;;;;5048073;28;20040;-49
2022/01/09 06:01:17;;;;;;;6.90;4.70;;;3.30;99.90;;;;;;5055780;28;20174;-54
2022/01/09 06:04:02;;;;;;;5.75;4.50;;;3.30;99.90;;;;;;5057162;28;20044;-56
2022/01/09 06:06:47;;;;;;;7.70;5.07;;;3.20;99.90;;;;;;5056125;28;20048;-55
2022/01/09 06:09:31;;;;;;;5.55;4.97;;;3.20;99.90;;;;;;5055423;28;20047;-55
2022/01/09 06:12:15;;;;;;;7.43;4.72;;;3.30;99.90;;;;;;5055774;28;20470;-55
2022/01/09 06:14:59;;;;;;;6.15;4.25;;;3.30;99.90;;;;;;5055324;28;20060;-55
2022/01/09 06:17:44;;;;;;;6.80;5.20;;;3.30;99.90;;;;;;5056755;28;20087;-53
2022/01/09 06:20:28;;;;;;;6.13;4.93;;;3.30;99.90;;;;;;5056107;28;20048;-55
2022/01/09 06:23:12;;;;;;;6.45;4.95;;;3.30;99.90;;;;;;5056313;28;20048;-51
2022/01/09 06:25:56;;;;;;;5.80;4.88;;;3.30;99.90;;;;;;5056471;28;20070;-48
2022/01/09 06:28:40;;;;;;;5.15;4.18;;;3.30;99.90;;;;;;5056141;28;20561;-55
2022/01/09 06:31:24;;;;;;;5.82;4.60;;;3.30;99.90;;;;;;5055745;28;20044;-56
2022/01/09 06:34:08;;;;;;;5.40;4.40;;;3.30;99.90;;;;;;5049230;28;20044;-56
2022/01/09 06:36:52;;;;;;;5.82;4.32;;;3.30;99.90;;;;;;5048226;28;20083;-50
2022/01/09 06:39:36;;;;;;;6.80;4.97;;;3.20;99.90;;;;;;5056350;28;20043;-55
2022/01/09 06:42:20;;;;;;;5.05;3.90;;;3.30;99.90;;;;;;5055775;28;20983;-53
2022/01/09 06:45:05;;;;;;;5.28;4.22;;;3.20;99.90;;;;;;5056208;28;20095;-53
2022/01/09 06:47:49;;;;;;;5.90;3.90;;;3.20;99.90;;;;;;5055129;28;20094;-52
2022/01/09 06:50:34;;;;;;;5.47;4.32;;;3.20;99.90;;;;;;5055643;28;20119;-54
2022/01/09 06:53:18;;;;;;;6.72;4.22;;;3.20;99.90;;;;;;5035435;28;20135;-49
2022/01/09 06:56:02;;;;;;;5.22;4.05;;;3.20;99.90;;;;;;5036780;28;20075;-55
2022/01/09 06:58:46;;;;;;;6.63;4.70;;;3.30;99.90;;;;;;5055750;28;20040;-50
2022/01/09 07:01:30;;;;;;;5.63;4.18;;;3.30;99.90;;;;;;5054696;28;20087;-54
2022/01/09 07:04:14;;;;;;;5.85;3.88;;;3.20;99.90;;;;;;5054802;28;20040;-52
2022/01/09 07:06:58;;;;;;;5.05;4.03;;;3.20;99.90;;;;;;5055027;28;20086;-51
2022/01/09 07:09:42;;;;;;;5.20;3.85;;;3.20;99.90;;;;;;5050864;28;20083;-50
2022/01/09 07:12:26;;;;;;;5.13;3.78;;;3.20;99.90;;;;;;5051546;28;20039;-54
2022/01/09 07:15:11;;;;;;;22.52;14.02;;;3.20;99.90;;;;;;5055123;28;20048;-53
2022/01/09 07:17:55;;;;;;;;;;;3.30;99.90;;;;;;5056082;28;20076;-55
2022/01/09 07:20:40;;;;;;;5.93;3.55;;;3.30;99.90;;;;;;5054849;28;19985;-53
2022/01/09 07:23:24;;;;;;;4.20;3.20;;;3.30;99.90;;;;;;5054039;28;20131;-56
2022/01/09 07:26:08;;;;;;;4.82;3.63;;;3.30;99.90;;;;;;5053759;28;20448;-55
2022/01/09 07:28:52;;;;;;;5.97;3.70;;;3.30;99.90;;;;;;5053671;28;20511;-54
2022/01/09 07:31:36;;;;;;;5.28;4.40;;;3.40;99.90;;;;;;5053671;28;20048;-53
2022/01/09 07:34:21;;;;;;;5.00;3.67;;;3.40;99.90;;;;;;5053790;28;20086;-58
2022/01/09 07:37:05;;;;;;;6.20;4.00;;;3.40;99.90;;;;;;5054462;28;20028;-53
2022/01/09 07:39:50;;;;;;;;;;;3.40;99.90;;;;;;5053620;28;20102;-54
2022/01/09 07:42:34;;;;;;;5.80;3.78;;;3.40;99.90;;;;;;5054884;28;20392;-54
2022/01/09 07:45:27;;;;;;;7.33;4.20;;;3.40;99.90;;;;;;5053582;28;20098;-56
2022/01/09 07:48:11;;;;;;;5.72;3.88;;;3.40;99.90;;;;;;5048899;28;20032;-59
2022/01/09 07:50:56;;;;;;;4.05;3.13;;;3.50;99.90;;;;;;5047302;28;20060;-55
2022/01/09 07:53:40;;;;;;;4.43;3.30;;;3.50;99.90;;;;;;5034561;28;20040;-53
2022/01/09 07:56:24;;;;;;;4.63;3.00;;;3.50;99.90;;;;;;5054269;28;20522;-54
2022/01/09 07:59:08;;;;;;;5.38;3.67;;;3.50;99.90;;;;;;5054031;28;20114;-57
2022/01/09 08:01:52;;;;;;;4.13;3.15;;;3.60;99.90;;;;;;5053463;28;20055;-53
2022/01/09 08:04:36;;;;;;;4.65;3.42;;;3.60;99.90;;;;;;5052263;28;20447;-57
2022/01/09 08:07:20;;;;;;;7.97;4.90;;;3.60;99.90;;;;;;5054052;28;20039;-54
2022/01/09 08:10:06;;;;;;;13.57;8.27;;;3.60;99.90;;;;;;5055049;28;20039;-54
2022/01/09 08:12:50;;;;;;;;;;;3.70;99.90;;;;;;5039809;28;20115;-53
2022/01/09 08:15:35;;;;;;;5.00;3.03;;;3.60;99.90;;;;;;5053463;28;19966;-55
2022/01/09 08:18:19;;;;;;;3.70;2.78;;;3.70;99.90;;;;;;5053542;28;20071;-54
2022/01/09 08:21:03;;;;;;;5.00;3.00;;;3.70;99.90;;;;;;5052669;28;20035;-54
2022/01/09 08:23:48;;;;;;;3.70;3.05;;;3.80;99.90;;;;;;5049106;28;20122;-56
2022/01/09 08:26:36;;;;;;;3.75;3.15;;;3.80;99.90;;;;;;5053609;28;20039;-54
2022/01/09 08:29:20;;;;;;;3.75;2.97;;;3.80;99.90;;;;;;5053321;28;20071;-54
2022/01/09 08:32:06;;;;;;;3.67;2.78;;;3.90;99.90;;;;;;5052755;28;20454;-57
2022/01/09 08:34:50;;;;;;;5.22;3.17;;;3.90;99.90;;;;;;5053030;28;20052;-57
2022/01/09 08:37:36;;;;;;;4.10;2.70;;;3.90;99.90;;;;;;5052562;28;20079;-56
2022/01/09 08:40:22;;;;;;;7.70;5.28;;;3.90;99.90;;;;;;5048413;28;20044;-51
2022/01/09 08:43:06;;;;;;;6.70;4.72;;;3.90;99.90;;;;;;5053820;28;20039;-51
2022/01/09 08:45:50;;;;;;;4.80;2.95;;;3.90;99.90;;;;;;5052651;28;20106;-56
2022/01/09 08:48:34;;;;;;;3.40;2.90;;;3.90;99.90;;;;;;5047871;28;20170;-57
2022/01/09 08:51:18;;;;;;;6.63;3.30;;;4.00;99.90;;;;;;5056712;28;20060;-53
2022/01/09 08:54:02;;;;;;;4.47;3.05;;;4.10;99.90;;;;;;5056468;28;20024;-54
2022/01/09 08:56:47;;;;;;;5.82;3.88;;;4.10;99.90;;;;;;5056118;28;20040;-57
2022/01/09 08:59:31;;;;;;;4.07;3.42;;;4.20;99.90;;;;;;5051245;28;20043;-57
2022/01/09 09:02:15;;;;;;;6.13;4.35;;;4.20;99.90;;;;;;5056552;28;20052;-56
2022/01/09 09:04:59;;;;;;;7.10;4.53;;;4.20;99.90;;;;;;5050590;28;20036;-52
2022/01/09 09:07:43;;;;;;;6.82;4.53;;;4.20;99.90;;;;;;5056327;28;20147;-54
2022/01/09 09:10:27;;;;;;;9.13;5.17;;;4.20;99.90;;;;;;5056488;28;20036;-52
2022/01/09 09:13:11;;;;;;;5.10;3.80;;;4.10;99.90;;;;;;5056293;28;20275;-55
2022/01/09 09:15:55;;;;;;;6.50;3.50;;;4.20;99.90;;;;;;5055846;28;20424;-55
2022/01/09 09:18:39;;;;;;;5.00;3.53;;;4.30;99.90;;;;;;5056533;28;20421;-52
2022/01/09 09:21:24;;;;;;;4.60;3.20;;;4.40;99.90;;;;;;5056434;28;20492;-54
2022/01/09 09:24:08;;;;;;;6.43;4.00;;;4.50;99.90;;;;;;5042278;28;20047;-58
2022/01/09 09:26:52;;;;;;;5.00;3.55;;;4.50;99.90;;;;;;5055463;28;20040;-54
2022/01/09 09:29:36;;;;;;;4.85;3.60;;;4.60;99.90;;;;;;5055973;28;20059;-59
2022/01/09 09:32:20;;;;;;;3.67;2.78;;;4.70;99.90;;;;;;5055827;28;20401;-54
2022/01/09 09:35:05;;;;;;;5.60;4.63;;;4.70;99.90;;;;;;5055338;28;20048;-53
2022/01/09 09:37:50;;;;;;;2.97;2.50;;;4.80;99.90;;;;;;5048423;28;20154;-58
2022/01/09 09:40:34;;;;;;;3.40;2.65;;;4.80;99.90;;;;;;5056474;28;20067;-55
2022/01/09 09:43:19;;;;;;;4.07;2.50;;;4.90;99.90;;;;;;5056511;28;20101;-56
2022/01/09 09:46:03;;;;;;;3.90;2.67;;;4.90;99.90;;;;;;5056635;28;20032;-58
2022/01/09 09:48:48;;;;;;;2.92;2.30;;;4.80;99.90;;;;;;5054677;28;20051;-57
2022/01/09 09:51:32;;;;;;;2.60;2.00;;;4.90;99.90;;;;;;5055153;28;20090;-56
2022/01/09 09:54:16;;;;;;;2.20;1.90;;;4.90;99.90;;;;;;5055677;28;20044;-56
2022/01/09 09:57:00;;;;;;;2.15;1.80;;;4.80;99.90;;;;;;5055973;28;20036;-56
2022/01/09 09:59:45;;;;;;;1.90;1.60;;;4.90;99.90;;;;;;5056237;28;20036;-53
2022/01/09 10:02:49;;;;;;;1.70;1.60;;;4.90;99.90;;;;;;5056129;28;20048;-58
2022/01/09 10:05:35;;;;;;;1.58;1.48;;;4.80;99.90;;;;;;5056806;28;20036;-56
2022/01/09 10:08:19;;;;;;;1.60;1.50;;;4.80;99.90;;;;;;5056221;28;20408;-54
2022/01/09 10:11:18;;;;;;;1.80;1.60;;;4.70;99.90;;;;;;5056355;28;20032;-57
2022/01/09 10:14:16;;;;;;;2.03;1.45;;;4.70;99.90;;;;;;5055953;28;20028;-53
2022/01/09 10:17:12;;;;;;;1.67;1.58;;;4.70;99.90;;;;;;5055526;28;20454;-55
2022/01/09 10:20:04;;;;;;;1.63;1.48;;;4.70;99.90;;;;;;5050273;28;20040;-57
2022/01/09 10:22:55;;;;;;;1.75;1.38;;;4.60;99.90;;;;;;5056518;28;20076;-57
2022/01/09 10:25:40;;;;;;;1.30;1.20;;;4.60;99.90;;;;;;5056518;28;20057;-58
2022/01/09 10:28:24;;;;;;;1.63;1.52;;;4.50;99.90;;;;;;5056875;28;20028;-56
2022/01/09 10:31:16;;;;;;;3.75;1.70;;;4.50;99.90;;;;;;5055779;28;20507;-52
2022/01/09 10:34:06;;;;;;;2.15;1.65;;;4.50;99.90;;;;;;5055959;28;20028;-56
2022/01/09 10:36:51;;;;;;;2.30;1.60;;;4.40;99.90;;;;;;5055040;28;20036;-57
2022/01/09 10:39:36;;;;;;;1.80;1.70;;;4.40;99.90;;;;;;5055160;28;20508;-54
2022/01/09 10:42:21;;;;;;;1.60;1.50;;;4.40;99.90;;;;;;5053901;28;20044;-53
2022/01/09 10:45:24;;;;;;;1.92;1.55;;;4.30;99.90;;;;;;5046792;28;20040;-58
2022/01/09 10:48:12;;;;;;;1.70;1.60;;;4.30;99.90;;;;;;5048088;28;20094;-53
2022/01/09 10:50:58;;;;;;;6.32;4.20;;;4.30;99.90;;;;;;5050677;28;20087;-58
2022/01/09 10:53:43;;;;;;;1.95;1.70;;;4.30;99.90;;;;;;5049044;28;20130;-53
2022/01/09 10:56:28;;;;;;;2.38;2.00;;;4.30;99.90;;;;;;5050868;28;20032;-56
2022/01/09 10:59:12;;;;;;;2.35;1.90;;;4.30;99.90;;;;;;5053397;28;20462;-56
2022/01/09 11:02:00;;;;;;;2.40;2.20;;;4.30;99.90;;;;;;5050912;28;20040;-56
2022/01/09 11:04:47;;;;;;;2.17;1.83;;;4.30;99.90;;;;;;5048789;28;20694;-54
2022/01/09 11:07:31;;;;;;;2.22;2.00;;;4.50;99.90;;;;;;5049818;28;20511;-57
2022/01/09 11:10:17;;;;;;;2.80;2.03;;;4.50;99.90;;;;;;5053985;28;20071;-53
2022/01/09 11:13:02;;;;;;;2.63;2.08;;;4.50;99.90;;;;;;5052447;28;20147;-54
2022/01/09 11:16:32;;;;;;;;;;;4.60;99.90;;;;;;5054620;28;20036;-52
2022/01/09 11:18:52;;;;;;;2.72;2.53;;;4.60;99.90;;;;;;5051457;28;19924;-50
2022/01/09 11:21:44;;;;;;;5.32;2.72;;;4.80;99.90;;;;;;5049742;28;20089;-55
2022/01/09 11:25:07;;;;;;;2.10;1.95;;;4.80;99.90;;;;;;5052680;28;20036;-55
2022/01/09 11:28:04;;;;;;;3.78;2.33;;;4.70;99.90;;;;;;5052003;28;20474;-53
2022/01/09 11:31:09;;;;;;;3.38;2.83;;;4.80;99.90;;;;;;5049855;28;20086;-51
2022/01/09 11:33:59;;;;;;;3.00;2.70;;;4.80;99.90;;;;;;5051941;28;20160;-52
2022/01/09 11:37:01;;;;;;;2.83;2.35;;;4.70;99.90;;;;;;5050417;28;20024;-54
2022/01/09 11:39:45;;;;;;;3.28;2.50;;;4.80;99.90;;;;;;5052519;28;20094;-57
2022/01/09 11:42:29;;;;;;;2.50;2.30;;;4.90;99.90;;;;;;5053029;28;20055;-56
2022/01/09 11:45:13;;;;;;;2.63;2.40;;;4.90;99.90;;;;;;5048609;28;20036;-56
2022/01/09 11:47:57;;;;;;;2.90;2.30;;;5.10;99.90;;;;;;5052684;28;20062;-56
2022/01/09 11:51:05;;;;;;;4.55;2.50;;;5.00;99.90;;;;;;5050753;28;20036;-51
2022/01/09 11:54:00;;;;;;;2.50;2.30;;;4.90;99.90;;;;;;5051746;28;20074;-55
2022/01/09 11:56:50;;;;;;;2.60;2.40;;;4.90;99.90;;;;;;5052309;28;20036;-56
2022/01/09 11:59:37;;;;;;;3.75;2.70;;;4.80;99.90;;;;;;5054639;28;20048;-56
2022/01/09 12:02:27;;;;;;;2.60;2.40;;;4.80;99.90;;;;;;5054267;28;20164;-52
2022/01/09 12:05:11;;;;;;;2.83;2.53;;;4.90;99.90;;;;;;5050508;28;20104;-58
2022/01/09 12:07:55;;;;;;;4.75;2.67;;;4.80;99.90;;;;;;5052979;28;20140;-53
2022/01/09 12:10:40;;;;;;;2.25;2.00;;;4.70;99.90;;;;;;5050382;28;20408;-57
2022/01/09 12:13:38;;;;;;;2.72;2.53;;;4.50;99.90;;;;;;5049946;28;20024;-57
2022/01/09 12:16:47;;;;;;;2.53;2.30;;;4.60;99.90;;;;;;5050445;28;20040;-61
2022/01/09 12:19:54;;;;;;;4.18;2.53;;;4.70;99.90;;;;;;5051794;28;20087;-55
2022/01/09 12:22:42;;;;;;;2.10;1.92;;;4.50;99.90;;;;;;5053185;28;20079;-58
2022/01/09 12:25:30;;;;;;;2.40;2.15;;;4.50;99.90;;;;;;5053662;28;20031;-54
2022/01/09 12:28:20;;;;;;;2.25;1.80;;;4.40;99.90;;;;;;5051657;28;20032;-57
2022/01/09 12:31:06;;;;;;;2.42;1.90;;;4.40;99.90;;;;;;5046975;28;20036;-55
2022/01/09 12:33:50;;;;;;;1.77;1.67;;;4.30;99.90;;;;;;5050941;28;20691;-56
2022/01/09 12:36:35;;;;;;;1.70;1.60;;;4.30;99.90;;;;;;5045995;28;20051;-60
2022/01/09 12:39:19;;;;;;;3.22;2.30;;;4.30;99.90;;;;;;5049612;28;20086;-57
2022/01/09 12:42:03;;;;;;;2.90;2.15;;;4.30;99.90;;;;;;5052862;28;20036;-56
2022/01/09 12:44:54;;;;;;;3.03;2.35;;;4.30;99.90;;;;;;5049472;28;20040;-55
2022/01/09 12:47:40;;;;;;;2.05;1.80;;;4.20;99.90;;;;;;5052833;28;20040;-60
2022/01/09 12:50:26;;;;;;;2.85;2.10;;;4.20;99.90;;;;;;5051133;28;20064;-56
2022/01/09 12:53:27;;;;;;;3.83;3.13;;;4.30;99.90;;;;;;5051307;28;20040;-59
2022/01/09 12:56:17;;;;;;;3.80;2.47;;;4.30;99.90;;;;;;5047729;28;20036;-59
2022/01/09 12:59:07;;;;;;;3.63;2.53;;;4.50;99.90;;;;;;5052966;28;20055;-56
2022/01/09 13:01:51;;;;;;;4.00;2.20;;;4.40;99.90;;;;;;5051874;28;20043;-57
2022/01/09 13:04:35;;;;;;;2.40;2.20;;;4.30;99.90;;;;;;5043674;28;20040;-57
2022/01/09 13:07:19;;;;;;;2.78;2.30;;;4.20;99.90;;;;;;5051850;28;20079;-59
2022/01/09 13:10:12;;;;;;;2.35;2.15;;;4.10;99.90;;;;;;5053375;28;20052;-60
2022/01/09 13:13:10;;;;;;;3.30;2.20;;;3.90;99.90;;;;;;5051962;28;20035;-57
2022/01/09 13:15:55;;;;;;;3.80;2.42;;;3.90;99.90;;;;;;5052062;28;20130;-53
2022/01/09 13:18:43;;;;;;;2.63;2.22;;;3.90;99.90;;;;;;5052780;28;20059;-57
2022/01/09 13:21:34;;;;;;;3.55;3.00;;;4.10;99.90;;;;;;5050531;28;20106;-54
2022/01/09 13:24:24;;;;;;;4.88;2.40;;;4.10;99.90;;;;;;5047133;28;20517;-54
2022/01/09 13:27:08;;;;;;;3.33;2.40;;;4.10;99.90;;;;;;5055445;28;20059;-55
2022/01/09 13:29:56;;;;;;;6.13;3.25;;;4.00;99.90;;;;;;5054953;28;20094;-56
2022/01/09 13:32:41;;;;;;;4.57;2.90;;;4.00;99.90;;;;;;5051155;28;20047;-54
2022/01/09 13:35:25;;;;;;;3.53;2.35;;;4.10;99.90;;;;;;5055070;28;20036;-55
2022/01/09 13:38:09;;;;;;;3.47;2.33;;;4.10;99.90;;;;;;5050818;28;20123;-57
2022/01/09 13:40:55;;;;;;;2.03;1.83;;;4.00;99.90;;;;;;5044619;28;20040;-55
2022/01/09 13:43:39;;;;;;;2.22;2.00;;;3.90;99.90;;;;;;5055571;28;20040;-58
2022/01/09 13:46:23;;;;;;;22.35;19.98;;;3.90;99.90;;;;;;5051942;28;20521;-58
2022/01/09 13:49:16;;;;;;;6.90;5.57;;;4.10;99.90;;;;;;5053818;28;20035;-55
2022/01/09 13:52:14;;;;;;;3.08;2.45;;;4.30;99.90;;;;;;5052458;28;20035;-55
2022/01/09 13:55:11;;;;;;;3.70;1.80;;;4.30;99.90;;;;;;5054845;28;20170;-56
2022/01/09 13:58:03;;;;;;;2.67;2.17;;;4.00;99.90;;;;;;5055808;28;20043;-54
2022/01/09 14:00:49;;;;;;;2.22;1.77;;;3.90;99.90;;;;;;5054885;28;20408;-51
2022/01/09 14:03:34;;;;;;;3.60;2.17;;;3.90;99.90;;;;;;5053046;28;20499;-55
2022/01/09 14:06:21;;;;;;;;;;;3.90;99.90;;;;;;5044413;28;20067;-55
2022/01/09 14:09:09;;;;;;;2.90;1.83;;;3.80;99.90;;;;;;5038297;28;19930;-56
2022/01/09 14:12:09;;;;;;;8.88;2.35;;;3.70;99.90;;;;;;5055082;28;20091;-55
2022/01/09 14:14:54;;;;;;;2.85;2.08;;;3.60;99.90;;;;;;5055070;28;20043;-56
2022/01/09 14:17:44;;;;;;;2.83;2.25;;;3.60;99.90;;;;;;5054555;28;20032;-56
2022/01/09 14:20:29;;;;;;;3.08;2.00;;;3.60;99.90;;;;;;5053564;28;20040;-56
2022/01/09 14:23:13;;;;;;;;;;;3.70;99.90;;;;;;5055308;28;20059;-57
2022/01/09 14:26:08;;;;;;;3.17;2.30;;;3.70;99.90;;;;;;5054229;28;19915;-54
2022/01/09 14:28:53;;;;;;;3.55;2.35;;;3.70;99.90;;;;;;5053486;28;20383;-56
2022/01/09 14:31:37;;;;;;;2.70;2.25;;;3.70;99.90;;;;;;5054941;28;20055;-63
2022/01/09 14:34:21;;;;;;;3.38;2.20;;;3.60;99.90;;;;;;5053445;28;20039;-59
2022/01/09 14:37:13;;;;;;;1.85;1.70;;;3.60;99.90;;;;;;5034953;28;20045;-58
2022/01/09 14:40:09;;;;;;;2.72;2.20;;;3.70;99.90;;;;;;5067956;28;20036;-59